createdAt,value
2023-05-14T00:00:48.131Z,57.80
2023-05-14T00:03:15.050Z,57.80
2023-05-14T00:05:42.002Z,57.70
2023-05-14T00:08:08.818Z,57.80
2023-05-14T00:10:35.631Z,58.30
2023-05-14T00:13:02.493Z,58.00
2023-05-14T00:15:30.539Z,58.00
2023-05-14T00:17:58.665Z,57.70
2023-05-14T00:20:25.699Z,57.20
2023-05-14T00:22:52.479Z,56.80
2023-05-14T00:25:19.163Z,56.70
2023-05-14T00:27:45.991Z,56.40
2023-05-14T00:30:12.638Z,56.10
2023-05-14T00:32:39.289Z,56.20
2023-05-14T00:35:06.364Z,55.90
2023-05-14T00:37:33.039Z,56.00
2023-05-14T00:39:59.783Z,56.10
2023-05-14T00:42:27.187Z,56.30
2023-05-14T00:44:54.002Z,56.30
2023-05-14T00:47:20.945Z,56.50
2023-05-14T00:49:47.617Z,56.60
2023-05-14T00:52:14.477Z,56.70
2023-05-14T00:54:41.064Z,56.80
2023-05-14T00:57:07.686Z,56.80
2023-05-14T00:59:34.348Z,56.90
2023-05-14T01:02:01.006Z,57.00
2023-05-14T01:04:27.699Z,57.00
2023-05-14T01:07:14.256Z,57.10
2023-05-14T01:09:51.878Z,57.10
2023-05-14T01:12:34.390Z,57.10
2023-05-14T01:15:07.174Z,57.30
2023-05-14T01:17:33.946Z,57.30
2023-05-14T01:20:00.742Z,57.10
2023-05-14T01:22:27.434Z,57.20
2023-05-14T01:24:54.022Z,57.10
2023-05-14T01:27:37.925Z,57.10
2023-05-14T01:30:16.938Z,57.10
2023-05-14T01:32:43.882Z,57.10
2023-05-14T01:35:10.742Z,57.20
2023-05-14T01:37:37.378Z,57.10
2023-05-14T01:40:04.265Z,57.10
2023-05-14T01:42:30.849Z,57.20
2023-05-14T01:44:57.468Z,57.10
2023-05-14T01:47:24.166Z,57.30
2023-05-14T01:49:50.930Z,57.20
2023-05-14T01:52:20.980Z,57.10
2023-05-14T01:54:50.509Z,57.20
2023-05-14T01:57:17.077Z,57.10
2023-05-14T01:59:43.759Z,57.20
2023-05-14T02:02:10.369Z,57.30
2023-05-14T02:04:36.984Z,57.20
2023-05-14T02:07:03.668Z,57.10
2023-05-14T02:09:30.784Z,57.10
2023-05-14T02:11:57.600Z,57.20
2023-05-14T02:14:24.168Z,57.20
2023-05-14T02:16:51.397Z,57.10
2023-05-14T02:19:19.181Z,57.10
2023-05-14T02:21:49.390Z,57.20
2023-05-14T02:24:16.062Z,57.20
2023-05-14T02:26:42.702Z,57.10
2023-05-14T02:29:09.397Z,57.20
2023-05-14T02:31:36.373Z,57.20
2023-05-14T02:34:06.615Z,57.10
2023-05-14T02:36:33.220Z,57.20
2023-05-14T02:39:00.972Z,57.20
2023-05-14T02:41:27.643Z,57.10
2023-05-14T02:43:54.422Z,57.20
2023-05-14T02:46:21.129Z,57.10
2023-05-14T02:48:47.863Z,57.00
2023-05-14T02:51:14.572Z,57.10
2023-05-14T02:53:41.325Z,57.10
2023-05-14T02:56:08.250Z,57.10
2023-05-14T02:58:34.995Z,57.10
2023-05-14T03:01:01.715Z,57.10
2023-05-14T03:03:29.609Z,57.10
2023-05-14T03:05:56.984Z,57.10
2023-05-14T03:08:29.701Z,57.10
2023-05-14T03:10:56.451Z,57.10
2023-05-14T03:13:26.374Z,57.10
2023-05-14T03:15:55.133Z,57.10
2023-05-14T03:18:21.882Z,57.10
2023-05-14T03:20:48.579Z,57.10
2023-05-14T03:23:15.286Z,57.10
2023-05-14T03:25:45.149Z,57.30
2023-05-14T03:28:11.921Z,57.10
2023-05-14T03:30:38.621Z,56.80
2023-05-14T03:33:05.517Z,56.30
2023-05-14T03:35:32.426Z,56.30
2023-05-14T03:37:59.427Z,55.90
2023-05-14T03:40:29.103Z,55.80
2023-05-14T03:42:56.185Z,55.50
2023-05-14T03:45:22.946Z,55.50
2023-05-14T03:47:49.699Z,55.30
2023-05-14T03:50:16.471Z,55.50
2023-05-14T03:52:43.678Z,55.60
2023-05-14T03:55:13.483Z,55.60
2023-05-14T03:57:40.461Z,55.80
2023-05-14T04:00:07.452Z,55.80
2023-05-14T04:02:34.210Z,56.00
2023-05-14T04:05:00.970Z,56.10
2023-05-14T04:07:27.696Z,56.20
2023-05-14T04:09:54.540Z,56.20
2023-05-14T04:12:27.440Z,56.20
2023-05-14T04:14:54.168Z,56.30
2023-05-14T04:17:20.876Z,56.50
2023-05-14T04:19:47.728Z,56.40
2023-05-14T04:22:20.518Z,56.50
2023-05-14T04:24:47.229Z,56.40
2023-05-14T04:27:15.243Z,56.50
2023-05-14T04:29:41.946Z,56.50
2023-05-14T04:32:09.295Z,56.50
2023-05-14T04:34:36.390Z,56.40
2023-05-14T04:37:04.263Z,56.50
2023-05-14T04:39:31.002Z,56.50
2023-05-14T04:41:57.732Z,56.60
2023-05-14T04:44:24.480Z,56.60
2023-05-14T04:46:51.281Z,56.60
2023-05-14T04:49:18.128Z,56.60
2023-05-14T04:51:44.929Z,56.50
2023-05-14T04:54:11.802Z,56.60
2023-05-14T04:56:38.529Z,56.50
2023-05-14T04:59:05.372Z,56.50
2023-05-14T05:01:32.420Z,56.50
2023-05-14T05:04:02.397Z,56.60
2023-05-14T05:06:29.168Z,56.60
2023-05-14T05:08:56.013Z,57.10
2023-05-14T05:11:22.762Z,56.80
2023-05-14T05:13:49.626Z,56.60
2023-05-14T05:16:16.446Z,57.30
2023-05-14T05:18:44.673Z,57.20
2023-05-14T05:21:11.529Z,56.70
2023-05-14T05:23:38.235Z,56.60
2023-05-14T05:26:04.992Z,56.70
2023-05-14T05:28:31.664Z,56.60
2023-05-14T05:31:04.740Z,56.50
2023-05-14T05:33:31.474Z,56.60
2023-05-14T05:35:58.182Z,56.50
2023-05-14T05:38:24.898Z,56.50
2023-05-14T05:40:51.655Z,56.50
2023-05-14T05:43:18.364Z,56.60
2023-05-14T05:45:46.059Z,56.50
2023-05-14T05:48:12.813Z,56.60
2023-05-14T05:50:39.630Z,56.50
2023-05-14T05:53:06.362Z,56.50
2023-05-14T05:55:33.102Z,57.10
2023-05-14T05:57:59.888Z,56.50
2023-05-14T06:00:26.958Z,56.40
2023-05-14T06:02:54.010Z,56.20
2023-05-14T06:05:20.818Z,56.30
2023-05-14T06:07:47.624Z,56.60
2023-05-14T06:10:14.272Z,56.50
2023-05-14T06:12:44.115Z,56.30
2023-05-14T06:15:12.183Z,56.30
2023-05-14T06:17:39.051Z,56.50
2023-05-14T06:20:07.960Z,56.50
2023-05-14T06:22:34.841Z,56.60
2023-05-14T06:25:01.647Z,56.70
2023-05-14T06:27:28.376Z,56.70
2023-05-14T06:29:55.172Z,56.70
2023-05-14T06:32:22.006Z,56.70
2023-05-14T06:34:48.904Z,56.70
2023-05-14T06:37:15.689Z,56.70
2023-05-14T06:39:49.955Z,56.70
2023-05-14T06:42:17.221Z,56.80
2023-05-14T06:44:44.334Z,56.80
2023-05-14T06:47:11.100Z,56.40
2023-05-14T06:49:37.916Z,56.20
2023-05-14T06:52:10.698Z,56.20
2023-05-14T06:54:43.770Z,56.00
2023-05-14T06:57:16.804Z,55.50
2023-05-14T06:59:44.611Z,55.30
2023-05-14T07:02:11.289Z,55.90
2023-05-14T07:04:38.114Z,55.40
2023-05-14T07:07:05.819Z,55.40
2023-05-14T07:09:32.465Z,55.50
2023-05-14T07:11:59.261Z,55.70
2023-05-14T07:14:25.942Z,55.80
2023-05-14T07:16:52.864Z,55.90
2023-05-14T07:19:22.260Z,56.10
2023-05-14T07:21:55.121Z,56.10
2023-05-14T07:24:28.020Z,56.10
2023-05-14T07:26:55.359Z,56.30
2023-05-14T07:29:22.077Z,56.30
2023-05-14T07:31:48.921Z,56.50
2023-05-14T07:34:15.767Z,56.40
2023-05-14T07:36:42.483Z,56.50
2023-05-14T07:39:15.366Z,56.50
2023-05-14T07:41:42.020Z,56.40
2023-05-14T07:44:08.774Z,56.50
2023-05-14T07:46:36.385Z,56.50
2023-05-14T07:49:03.080Z,56.60
2023-05-14T07:51:31.901Z,56.50
2023-05-14T07:54:00.029Z,56.40
2023-05-14T07:56:26.778Z,55.50
2023-05-14T07:58:53.601Z,55.10
2023-05-14T08:01:20.293Z,55.60
2023-05-14T08:03:47.733Z,55.80
2023-05-14T08:06:14.600Z,55.60
2023-05-14T08:08:41.338Z,55.80
2023-05-14T08:11:08.175Z,55.60
2023-05-14T08:13:35.003Z,55.40
2023-05-14T08:16:02.236Z,55.50
2023-05-14T08:18:29.298Z,55.30
2023-05-14T08:20:56.237Z,55.20
2023-05-14T08:23:23.551Z,55.10
2023-05-14T08:25:50.770Z,55.00
2023-05-14T08:28:17.683Z,54.90
2023-05-14T08:30:44.519Z,54.70
2023-05-14T08:33:11.379Z,54.70
2023-05-14T08:35:38.090Z,54.50
2023-05-14T08:38:04.845Z,54.40
2023-05-14T08:40:31.671Z,54.50
2023-05-14T08:42:58.460Z,54.10
2023-05-14T08:45:27.447Z,54.00
2023-05-14T08:47:57.291Z,53.80
2023-05-14T08:50:24.304Z,54.00
2023-05-14T08:52:51.290Z,53.80
2023-05-14T08:55:18.073Z,53.50
2023-05-14T08:57:47.943Z,53.80
2023-05-14T09:00:15.950Z,53.40
2023-05-14T09:02:42.796Z,53.50
2023-05-14T09:05:09.727Z,53.40
2023-05-14T09:07:36.584Z,53.90
2023-05-14T09:10:04.089Z,52.60
2023-05-14T09:12:35.775Z,52.70
2023-05-14T09:15:02.566Z,52.60
2023-05-14T09:17:29.275Z,52.60
2023-05-14T09:19:56.023Z,52.40
2023-05-14T09:22:22.778Z,52.20
2023-05-14T09:25:02.687Z,52.60
2023-05-14T09:27:29.800Z,52.60
2023-05-14T09:29:56.711Z,52.60
2023-05-14T09:32:23.456Z,52.70
2023-05-14T09:34:50.165Z,52.40
2023-05-14T09:37:16.876Z,52.80
2023-05-14T09:39:43.669Z,51.70
2023-05-14T09:42:10.677Z,52.10
2023-05-14T09:44:40.573Z,52.10
2023-05-14T09:47:07.399Z,52.20
2023-05-14T09:49:34.233Z,52.20
2023-05-14T09:52:01.311Z,52.30
2023-05-14T09:54:28.185Z,52.50
2023-05-14T09:56:57.976Z,52.30
2023-05-14T09:59:24.813Z,52.50
2023-05-14T10:01:51.742Z,52.60
2023-05-14T10:04:18.565Z,52.30
2023-05-14T10:06:45.414Z,52.00
2023-05-14T10:09:15.098Z,51.90
2023-05-14T10:11:43.131Z,52.00
2023-05-14T10:14:21.294Z,51.80
2023-05-14T10:16:51.721Z,51.40
2023-05-14T10:19:18.948Z,51.30
2023-05-14T10:21:47.380Z,51.50
2023-05-14T10:24:14.458Z,51.20
2023-05-14T10:26:42.512Z,51.50
2023-05-14T10:29:12.651Z,51.70
2023-05-14T10:31:46.679Z,51.80
2023-05-14T10:34:44.513Z,51.80
2023-05-14T10:37:25.582Z,51.80
2023-05-14T10:40:00.981Z,52.10
2023-05-14T10:42:29.107Z,52.20
2023-05-14T10:44:58.514Z,52.00
2023-05-14T10:47:29.505Z,52.20
2023-05-14T10:49:57.661Z,52.20
2023-05-14T10:52:24.586Z,52.10
2023-05-14T10:54:54.630Z,52.20
2023-05-14T10:57:22.456Z,52.20
2023-05-14T10:59:49.665Z,52.20
2023-05-14T11:02:22.954Z,52.20
2023-05-14T11:04:53.520Z,52.30
2023-05-14T11:07:23.326Z,52.20
2023-05-14T11:09:51.377Z,52.40
2023-05-14T11:12:20.048Z,52.20
2023-05-14T11:14:50.618Z,52.20
2023-05-14T11:17:17.782Z,52.20
2023-05-14T11:19:46.191Z,52.30
2023-05-14T11:22:16.053Z,52.20
2023-05-14T11:24:42.996Z,52.20
2023-05-14T11:27:46.313Z,52.10
2023-05-14T11:30:14.097Z,52.20
2023-05-14T11:32:41.807Z,52.20
2023-05-14T11:35:08.765Z,52.20
2023-05-14T11:37:35.762Z,52.00
2023-05-14T11:40:03.338Z,52.00
2023-05-14T11:42:30.262Z,52.60
2023-05-14T11:44:57.297Z,52.00
2023-05-14T11:47:24.060Z,51.80
2023-05-14T11:50:09.568Z,51.70
2023-05-14T11:52:39.144Z,51.40
2023-05-14T11:55:06.494Z,51.00
2023-05-14T11:57:33.216Z,50.70
2023-05-14T11:59:59.897Z,50.70
2023-05-14T12:02:26.905Z,50.50
2023-05-14T12:04:53.841Z,50.60
2023-05-14T12:07:21.095Z,51.30
2023-05-14T12:09:50.971Z,50.60
2023-05-14T12:12:18.784Z,50.90
2023-05-14T12:14:47.132Z,51.10
2023-05-14T12:17:13.862Z,51.10
2023-05-14T12:19:42.015Z,51.40
2023-05-14T12:22:15.723Z,51.40
2023-05-14T12:25:02.680Z,51.50
2023-05-14T12:27:31.514Z,51.60
2023-05-14T12:32:35.674Z,51.40
2023-05-14T12:35:02.397Z,51.50
2023-05-14T12:37:31.168Z,51.60
2023-05-14T12:39:58.054Z,51.80
2023-05-14T12:42:24.825Z,51.60
2023-05-14T12:44:51.529Z,51.40
2023-05-14T12:47:18.580Z,51.40
2023-05-14T12:49:45.488Z,51.10
2023-05-14T12:54:44.847Z,50.00
2023-05-14T12:57:11.642Z,49.80
2023-05-14T12:59:38.354Z,49.70
2023-05-14T13:02:05.276Z,49.90
2023-05-14T13:04:32.031Z,50.30
2023-05-14T13:06:58.943Z,50.00
2023-05-14T13:09:27.796Z,50.40
2023-05-14T13:11:54.614Z,50.80
2023-05-14T13:14:21.394Z,51.00
2023-05-14T13:16:48.153Z,50.30
2023-05-14T13:19:14.965Z,50.50
2023-05-14T13:21:41.682Z,50.30
2023-05-14T13:24:14.573Z,50.80
2023-05-14T13:26:41.420Z,50.70
2023-05-14T13:29:08.093Z,50.90
2023-05-14T13:31:38.056Z,50.90
2023-05-14T13:34:05.105Z,50.80
2023-05-14T13:36:32.517Z,50.70
2023-05-14T13:38:59.350Z,50.70
2023-05-14T13:41:26.413Z,50.60
2023-05-14T13:43:53.410Z,50.60
2023-05-14T13:46:37.941Z,50.50
2023-05-14T13:49:06.725Z,50.80
2023-05-14T13:51:33.842Z,50.70
2023-05-14T13:54:00.745Z,51.20
2023-05-14T13:56:27.446Z,51.50
2023-05-14T13:58:54.162Z,51.40
2023-05-14T14:01:20.973Z,51.70
2023-05-14T14:03:51.691Z,51.70
2023-05-14T14:06:18.438Z,51.80
2023-05-14T14:08:45.316Z,52.00
2023-05-14T14:11:13.649Z,52.10
2023-05-14T14:13:40.390Z,52.10
2023-05-14T14:16:07.204Z,52.20
2023-05-14T14:18:34.239Z,52.30
2023-05-14T14:21:00.951Z,52.30
2023-05-14T14:23:30.781Z,52.40
2023-05-14T14:25:57.849Z,52.50
2023-05-14T14:28:27.796Z,52.50
2023-05-14T14:30:54.546Z,52.60
2023-05-14T14:33:24.511Z,52.40
2023-05-14T14:35:57.276Z,52.60
2023-05-14T14:38:25.069Z,52.60
2023-05-14T14:40:51.966Z,52.60
2023-05-14T14:43:18.798Z,52.60
2023-05-14T14:45:48.245Z,52.60
2023-05-14T14:48:22.900Z,52.70
2023-05-14T14:50:49.686Z,52.70
2023-05-14T14:53:16.391Z,52.80
2023-05-14T14:55:43.115Z,52.80
2023-05-14T14:58:09.838Z,52.70
2023-05-14T15:00:36.594Z,52.80
2023-05-14T15:03:03.513Z,52.70
2023-05-14T15:05:30.515Z,52.50
2023-05-14T15:07:57.287Z,52.30
2023-05-14T15:10:30.793Z,52.40
2023-05-14T15:12:58.157Z,51.90
2023-05-14T15:15:28.034Z,51.60
2023-05-14T15:17:54.830Z,51.60
2023-05-14T15:20:21.648Z,51.70
2023-05-14T15:22:50.373Z,51.80
2023-05-14T15:25:17.025Z,52.00
2023-05-14T15:27:43.726Z,52.00
2023-05-14T15:30:10.957Z,52.20
2023-05-14T15:32:37.761Z,52.30
2023-05-14T15:35:04.689Z,52.20
2023-05-14T15:37:41.171Z,52.40
2023-05-14T15:40:11.139Z,52.50
2023-05-14T15:42:38.343Z,53.10
2023-05-14T15:45:05.457Z,52.60
2023-05-14T15:47:32.297Z,52.60
2023-05-14T15:50:02.189Z,52.70
2023-05-14T15:52:31.871Z,52.40
2023-05-14T15:54:59.734Z,52.40
2023-05-14T15:57:26.549Z,52.90
2023-05-14T15:59:53.287Z,52.80
2023-05-14T16:02:20.080Z,52.90
2023-05-14T16:04:46.861Z,53.00
2023-05-14T16:07:13.777Z,53.00
2023-05-14T16:09:40.566Z,53.00
2023-05-14T16:12:10.621Z,53.10
2023-05-14T16:14:41.754Z,53.10
2023-05-14T16:17:08.793Z,53.30
2023-05-14T16:19:35.597Z,53.20
2023-05-14T16:22:05.525Z,53.30
2023-05-14T16:24:36.011Z,53.30
2023-05-14T16:27:02.728Z,53.10
2023-05-14T16:29:29.601Z,53.20
2023-05-14T16:31:59.456Z,53.20
2023-05-14T16:34:26.205Z,53.20
2023-05-14T16:36:53.040Z,53.10
2023-05-14T16:39:19.952Z,53.00
2023-05-14T16:41:46.698Z,52.90
2023-05-14T16:44:13.405Z,52.80
2023-05-14T16:46:41.372Z,52.40
2023-05-14T16:49:08.104Z,52.40
2023-05-14T16:51:34.977Z,51.50
2023-05-14T16:54:04.814Z,52.00
2023-05-14T16:56:32.494Z,52.20
2023-05-14T16:58:59.278Z,52.40
2023-05-14T17:01:26.263Z,52.60
2023-05-14T17:03:53.067Z,52.70
2023-05-14T17:06:19.784Z,52.80
2023-05-14T17:08:46.621Z,53.00
2023-05-14T17:11:13.411Z,52.90
2023-05-14T17:13:41.281Z,53.10
2023-05-14T17:16:08.071Z,53.00
2023-05-14T17:18:35.044Z,52.40
2023-05-14T17:21:01.783Z,53.10
2023-05-14T17:23:28.711Z,53.20
2023-05-14T17:25:56.766Z,53.20
2023-05-14T17:28:24.721Z,53.40
2023-05-14T17:30:51.602Z,53.60
2023-05-14T17:33:18.439Z,53.90
2023-05-14T17:35:45.856Z,54.20
2023-05-14T17:38:15.743Z,54.50
2023-05-14T17:40:48.542Z,54.60
2023-05-14T17:43:15.429Z,55.00
2023-05-14T17:45:53.271Z,55.10
2023-05-14T17:48:20.964Z,55.50
2023-05-14T17:50:54.094Z,55.50
2023-05-14T17:53:20.972Z,55.70
2023-05-14T17:55:50.216Z,55.80
2023-05-14T17:58:16.940Z,56.00
2023-05-14T18:00:44.024Z,56.10
2023-05-14T18:03:11.598Z,56.10
2023-05-14T18:05:38.761Z,56.40
2023-05-14T18:08:05.929Z,56.90
2023-05-14T18:10:32.946Z,56.00
2023-05-14T18:13:02.736Z,55.80
2023-05-14T18:15:31.666Z,55.20
2023-05-14T18:17:58.614Z,55.20
2023-05-14T18:20:25.696Z,54.70
2023-05-14T18:22:52.510Z,54.50
2023-05-14T18:25:19.440Z,54.60
2023-05-14T18:27:46.978Z,54.70
2023-05-14T18:30:14.708Z,55.10
2023-05-14T18:32:42.145Z,55.50
2023-05-14T18:35:09.246Z,55.50
2023-05-14T18:37:36.036Z,55.80
2023-05-14T18:40:03.136Z,56.10
2023-05-14T18:42:30.089Z,56.20
2023-05-14T18:44:57.087Z,56.20
2023-05-14T18:47:23.945Z,56.60
2023-05-14T18:49:55.055Z,56.50
2023-05-14T18:52:26.319Z,56.80
2023-05-14T18:54:54.770Z,57.10
2023-05-14T18:57:21.754Z,57.10
2023-05-14T18:59:48.907Z,57.00
2023-05-14T19:02:15.874Z,57.80
2023-05-14T19:04:51.793Z,57.20
2023-05-14T19:07:22.929Z,57.50
2023-05-14T19:09:53.178Z,57.50
2023-05-14T19:12:20.008Z,57.40
2023-05-14T19:14:47.091Z,57.90
2023-05-14T19:17:13.860Z,57.80
2023-05-14T19:19:41.002Z,58.10
2023-05-14T19:22:07.753Z,58.10
2023-05-14T19:24:37.939Z,57.90
2023-05-14T19:27:04.962Z,58.00
2023-05-14T19:29:34.564Z,58.30
2023-05-14T19:32:01.538Z,58.10
2023-05-14T19:34:28.295Z,58.30
2023-05-14T19:36:57.999Z,58.40
2023-05-14T19:39:24.780Z,58.20
2023-05-14T19:41:51.456Z,58.80
2023-05-14T19:44:18.172Z,58.20
2023-05-14T19:46:45.415Z,58.40
2023-05-14T19:49:12.271Z,58.60
2023-05-14T19:51:38.983Z,58.20
2023-05-14T19:54:05.940Z,58.50
2023-05-14T19:56:32.664Z,58.40
2023-05-14T19:58:59.516Z,58.30
2023-05-14T20:01:26.873Z,58.40
2023-05-14T20:03:53.673Z,58.50
2023-05-14T20:06:20.454Z,58.50
2023-05-14T20:08:51.620Z,58.70
2023-05-14T20:11:19.683Z,58.50
2023-05-14T20:13:46.465Z,58.60
2023-05-14T20:16:16.723Z,58.60
2023-05-14T20:18:43.749Z,58.50
2023-05-14T20:21:11.068Z,58.60
2023-05-14T20:23:37.878Z,58.60
2023-05-14T20:26:04.661Z,58.70
2023-05-14T20:28:31.389Z,58.70
2023-05-14T20:31:03.079Z,58.60
2023-05-14T20:33:30.249Z,58.60
2023-05-14T20:35:57.026Z,58.60
2023-05-14T20:38:25.767Z,58.60
2023-05-14T20:40:52.558Z,58.60
2023-05-14T20:43:19.248Z,58.70
2023-05-14T20:45:46.178Z,58.50
2023-05-14T20:48:16.303Z,59.30
2023-05-14T20:50:43.366Z,58.70
2023-05-14T20:53:10.154Z,58.10
2023-05-14T20:55:36.959Z,57.60
2023-05-14T20:58:03.729Z,57.30
2023-05-14T21:00:30.576Z,56.90
2023-05-14T21:02:57.726Z,56.90
2023-05-14T21:05:24.811Z,56.70
2023-05-14T21:07:54.874Z,56.50
2023-05-14T21:10:21.675Z,56.80
2023-05-14T21:12:48.428Z,56.80
2023-05-14T21:15:15.372Z,57.10
2023-05-14T21:17:45.337Z,57.20
2023-05-14T21:20:13.474Z,57.30
2023-05-14T21:22:40.192Z,57.40
2023-05-14T21:25:07.072Z,57.70
2023-05-14T21:27:36.875Z,57.90
2023-05-14T21:30:03.704Z,58.00
2023-05-14T21:32:30.867Z,58.00
2023-05-14T21:34:57.709Z,58.10
2023-05-14T21:37:24.414Z,58.00
2023-05-14T21:39:51.169Z,58.20
2023-05-14T21:42:18.957Z,58.10
2023-05-14T21:44:45.656Z,58.20
2023-05-14T21:47:12.389Z,59.00
2023-05-14T21:49:39.107Z,58.40
2023-05-14T21:52:05.871Z,58.50
2023-05-14T21:54:32.619Z,59.10
2023-05-14T21:56:59.345Z,58.40
2023-05-14T21:59:26.068Z,58.30
2023-05-14T22:02:06.309Z,59.10
2023-05-14T22:04:34.310Z,58.40
2023-05-14T22:07:01.606Z,58.50
2023-05-14T22:09:28.393Z,58.60
2023-05-14T22:11:55.100Z,58.50
2023-05-14T22:14:21.793Z,58.60
2023-05-14T22:16:48.591Z,58.70
2023-05-14T22:19:18.496Z,58.50
2023-05-14T22:21:48.274Z,58.60
2023-05-14T22:24:18.031Z,58.60
2023-05-14T22:26:51.020Z,58.50
2023-05-14T22:29:17.762Z,59.20
2023-05-14T22:31:44.581Z,58.50
2023-05-14T22:34:14.340Z,58.50
2023-05-14T22:36:41.045Z,58.70
2023-05-14T22:39:07.780Z,58.50
2023-05-14T22:41:35.294Z,58.60
2023-05-14T22:44:01.970Z,58.50
2023-05-14T22:46:28.726Z,58.50
2023-05-14T22:48:55.540Z,58.80
2023-05-14T22:51:22.317Z,58.60
2023-05-14T22:53:49.014Z,58.60
2023-05-14T22:56:15.911Z,58.60
2023-05-14T22:58:42.593Z,58.50
2023-05-14T23:01:09.270Z,59.20
2023-05-14T23:03:36.033Z,58.60
2023-05-14T23:06:02.712Z,58.50
2023-05-14T23:08:29.481Z,58.60
2023-05-14T23:10:56.250Z,58.50
2023-05-14T23:13:23.013Z,58.50
2023-05-14T23:15:49.793Z,59.10
2023-05-14T23:18:16.651Z,58.50
2023-05-14T23:20:43.881Z,59.20
2023-05-14T23:23:16.633Z,58.40
2023-05-14T23:25:43.380Z,58.50
2023-05-14T23:28:10.144Z,58.60
2023-05-14T23:30:37.948Z,58.40
2023-05-14T23:33:04.816Z,58.50
2023-05-14T23:35:31.572Z,58.40
2023-05-14T23:37:58.310Z,58.40
2023-05-14T23:40:25.075Z,58.60
2023-05-14T23:42:51.887Z,58.40
2023-05-14T23:45:18.658Z,58.50
2023-05-14T23:47:51.697Z,58.60
2023-05-14T23:50:18.484Z,58.30
2023-05-14T23:52:45.152Z,57.90
2023-05-14T23:55:11.851Z,57.40
2023-05-14T23:57:38.523Z,57.10
